createdAt,value
2019-04-06T00:01:33.293Z,36
2019-04-06T00:11:38.215Z,30
2019-04-06T00:16:40.813Z,30
2019-04-06T00:21:43.134Z,28
2019-04-06T00:26:45.599Z,27
2019-04-06T00:31:48.051Z,29
2019-04-06T00:36:50.661Z,22
2019-04-06T00:41:53.074Z,19
2019-04-06T00:46:56.095Z,26
2019-04-06T00:51:57.868Z,27
2019-04-06T00:57:00.336Z,27
2019-04-06T01:02:02.784Z,27
2019-04-06T01:07:05.353Z,25
2019-04-06T01:12:07.699Z,20
2019-04-06T01:17:10.256Z,20
2019-04-06T01:22:12.630Z,20
2019-04-06T01:27:15.080Z,19
2019-04-06T01:32:17.583Z,19
2019-04-06T01:37:20.087Z,16
2019-04-06T01:42:22.439Z,19
2019-04-06T01:47:24.953Z,18
2019-04-06T01:52:27.359Z,17
2019-04-06T01:57:29.884Z,18
2019-04-06T02:02:32.284Z,16
2019-04-06T02:07:34.774Z,18
2019-04-06T02:12:37.212Z,15
2019-04-06T02:17:39.734Z,16
2019-04-06T02:22:42.150Z,16
2019-04-06T02:27:44.572Z,16
2019-04-06T02:32:47.031Z,17
2019-04-06T02:42:51.965Z,17
2019-04-06T02:47:54.389Z,16
2019-04-06T02:52:56.890Z,16
2019-04-06T02:57:59.431Z,16
2019-04-06T03:03:01.930Z,16
2019-04-06T03:08:04.470Z,18
2019-04-06T03:13:06.862Z,16
2019-04-06T03:18:09.165Z,18
2019-04-06T03:23:11.625Z,18
2019-04-06T03:28:14.098Z,18
2019-04-06T03:33:16.748Z,17
2019-04-06T03:38:19.012Z,16
2019-04-06T03:43:21.562Z,16
2019-04-06T03:48:23.933Z,18
2019-04-06T03:53:26.476Z,17
2019-04-06T03:58:29.130Z,18
2019-04-06T04:03:31.454Z,18
2019-04-06T04:08:33.825Z,18
2019-04-06T04:13:36.658Z,21
2019-04-06T04:18:38.697Z,21
2019-04-06T04:23:41.227Z,18
2019-04-06T04:28:43.718Z,17
2019-04-06T04:33:46.087Z,19
2019-04-06T04:38:48.569Z,19
2019-04-06T04:43:51.022Z,19
2019-04-06T04:48:53.556Z,19
2019-04-06T04:58:58.409Z,18
2019-04-06T05:04:00.907Z,14
2019-04-06T05:09:03.357Z,17
2019-04-06T05:14:05.797Z,18
2019-04-06T05:19:08.267Z,19
2019-04-06T05:24:10.728Z,20
2019-04-06T05:29:13.554Z,20
2019-04-06T05:34:15.825Z,21
2019-04-06T05:39:18.317Z,23
2019-04-06T05:44:20.556Z,22
2019-04-06T05:49:23.080Z,17
2019-04-06T05:54:25.509Z,18
2019-04-06T05:59:27.939Z,19
2019-04-06T06:04:30.400Z,18
2019-04-06T06:09:33.185Z,18
2019-04-06T06:14:35.389Z,18
2019-04-06T06:19:37.763Z,17
2019-04-06T06:24:40.295Z,20
2019-04-06T06:29:42.715Z,16
2019-04-06T06:34:45.163Z,12
2019-04-06T06:39:47.761Z,10
2019-04-06T06:44:50.079Z,11
2019-04-06T06:49:52.646Z,11
2019-04-06T06:54:55.042Z,11
2019-04-06T06:59:57.439Z,10
2019-04-06T07:04:59.951Z,11
2019-04-06T07:10:05.637Z,10
2019-04-06T07:15:04.831Z,11
2019-04-06T07:20:07.273Z,11
2019-04-06T07:25:09.769Z,11
2019-04-06T07:30:12.421Z,13
2019-04-06T07:35:14.651Z,12
2019-04-06T07:40:17.128Z,12
2019-04-06T07:45:19.764Z,11
2019-04-06T07:50:22.143Z,11
2019-04-06T07:55:24.506Z,11
2019-04-06T08:00:27.259Z,10
2019-04-06T08:05:29.544Z,10
2019-04-06T08:10:31.940Z,10
2019-04-06T08:15:34.364Z,9
2019-04-06T08:20:36.897Z,10
2019-04-06T08:25:39.268Z,9
2019-04-06T08:30:47.146Z,10
2019-04-06T08:35:44.216Z,10
2019-04-06T08:40:46.647Z,8
2019-04-06T08:45:49.303Z,8
2019-04-06T08:50:51.632Z,8
2019-04-06T08:55:54.496Z,8
2019-04-06T09:00:56.554Z,8
2019-04-06T09:05:58.951Z,8
2019-04-06T09:11:01.622Z,7
2019-04-06T09:16:04.204Z,8
2019-04-06T09:21:06.437Z,7
2019-04-06T09:26:08.908Z,8
2019-04-06T09:31:11.299Z,9
2019-04-06T09:36:13.748Z,8
2019-04-06T09:41:16.233Z,9
2019-04-06T09:46:18.677Z,8
2019-04-06T09:51:21.177Z,9
2019-04-06T09:56:23.616Z,8
2019-04-06T10:01:37.237Z,9
2019-04-06T10:06:28.574Z,10
2019-04-06T10:11:31.306Z,10
2019-04-06T10:16:33.714Z,10
2019-04-06T10:21:36.196Z,11
2019-04-06T10:26:38.510Z,10
2019-04-06T10:31:40.938Z,10
2019-04-06T10:36:43.412Z,10
2019-04-06T10:41:46.005Z,10
2019-04-06T10:46:48.502Z,10
2019-04-06T10:51:50.888Z,10
2019-04-06T10:56:53.379Z,10
2019-04-06T11:01:56.024Z,9
2019-04-06T11:12:00.633Z,11
2019-04-06T11:17:03.438Z,11
2019-04-06T11:22:05.589Z,11
2019-04-06T11:27:08.198Z,11
2019-04-06T11:32:10.565Z,10
2019-04-06T11:42:15.445Z,13
2019-04-06T11:47:17.897Z,12
2019-04-06T11:52:20.382Z,11
2019-04-06T11:57:23.106Z,13
2019-04-06T12:02:25.217Z,13
2019-04-06T12:07:27.836Z,14
2019-04-06T12:12:30.139Z,13
2019-04-06T12:17:32.619Z,14
2019-04-06T12:22:35.053Z,13
2019-04-06T12:27:37.654Z,14
2019-04-06T12:32:40.005Z,14
2019-04-06T12:37:42.429Z,12
2019-04-06T12:42:45.173Z,14
2019-04-06T12:47:47.362Z,13
2019-04-06T12:52:49.810Z,12
2019-04-06T12:57:52.335Z,10
2019-04-06T13:02:54.903Z,10
2019-04-06T13:07:57.221Z,12
2019-04-06T13:12:59.656Z,11
2019-04-06T13:18:02.128Z,12
2019-04-06T13:23:04.772Z,12
2019-04-06T13:28:07.146Z,12
2019-04-06T13:33:09.546Z,10
2019-04-06T13:38:11.924Z,10
2019-04-06T13:43:14.474Z,9
2019-04-06T13:48:16.940Z,12
2019-04-06T13:53:19.351Z,12
2019-04-06T13:58:22.027Z,12
2019-04-06T14:03:24.652Z,12
2019-04-06T14:08:26.743Z,13
2019-04-06T14:13:29.204Z,11
2019-04-06T14:18:31.641Z,13
2019-04-06T14:23:34.081Z,15
2019-04-06T14:28:36.689Z,13
2019-04-06T14:33:39.160Z,14
2019-04-06T14:38:41.519Z,12
2019-04-06T14:43:43.967Z,16
2019-04-06T14:48:46.514Z,14
2019-04-06T14:53:49.091Z,14
2019-04-06T14:58:51.441Z,13
2019-04-06T15:03:53.808Z,13
2019-04-06T15:08:56.181Z,13
2019-04-06T15:13:58.684Z,13
2019-04-06T15:19:01.315Z,13
2019-04-06T15:24:03.647Z,13
2019-04-06T15:29:06.289Z,13
2019-04-06T15:34:08.688Z,14
2019-04-06T15:39:11.221Z,14
2019-04-06T15:44:13.405Z,16
2019-04-06T15:49:15.912Z,15
2019-04-06T15:54:18.336Z,14
2019-04-06T15:59:20.915Z,15
2019-04-06T16:04:23.484Z,14
2019-04-06T16:09:25.819Z,16
2019-04-06T16:14:28.476Z,16
2019-04-06T16:19:30.599Z,16
2019-04-06T16:24:33.488Z,15
2019-04-06T16:29:35.723Z,15
2019-04-06T16:34:37.972Z,17
2019-04-06T16:39:40.461Z,15
2019-04-06T16:44:43.461Z,16
2019-04-06T16:49:45.428Z,16
2019-04-06T16:54:47.806Z,15
2019-04-06T16:59:50.475Z,15
2019-04-06T17:04:52.738Z,17
2019-04-06T17:09:55.210Z,16
2019-04-06T17:14:58.332Z,15
2019-04-06T17:20:00.127Z,16
2019-04-06T17:25:02.966Z,14
2019-04-06T17:30:05.324Z,14
2019-04-06T17:35:07.479Z,15
2019-04-06T17:40:09.930Z,15
2019-04-06T17:45:12.863Z,14
2019-04-06T17:50:14.868Z,15
2019-04-06T17:55:17.303Z,14
2019-04-06T18:00:19.863Z,16
2019-04-06T18:05:22.645Z,15
2019-04-06T18:10:24.674Z,15
2019-04-06T18:15:27.274Z,17
2019-04-06T18:20:29.976Z,18
2019-04-06T18:25:32.037Z,15
2019-04-06T18:30:34.883Z,18
2019-04-06T18:35:37.125Z,16
2019-04-06T18:40:39.450Z,17
2019-04-06T18:45:42.249Z,17
2019-04-06T18:50:44.399Z,14
2019-04-06T18:55:47.033Z,15
2019-04-06T19:00:49.752Z,14
2019-04-06T19:05:52.139Z,17
2019-04-06T19:10:55.449Z,15
2019-04-06T19:15:56.984Z,16
2019-04-06T19:20:59.269Z,14
2019-04-06T19:26:01.923Z,13
2019-04-06T19:31:04.508Z,14
2019-04-06T19:36:07.038Z,13
2019-04-06T19:46:11.466Z,13
2019-04-06T19:51:13.834Z,13
2019-04-06T20:01:19.090Z,12
2019-04-06T20:06:21.238Z,13
2019-04-06T20:11:23.799Z,13
2019-04-06T20:16:26.410Z,13
2019-04-06T20:21:28.641Z,13
2019-04-06T20:26:32.096Z,12
2019-04-06T20:31:34.074Z,12
2019-04-06T20:36:36.372Z,12
2019-04-06T20:41:38.404Z,12
2019-04-06T20:46:41.195Z,12
2019-04-06T20:51:43.500Z,12
2019-04-06T20:56:53.708Z,11
2019-04-06T21:01:48.478Z,11
2019-04-06T21:06:50.892Z,10
2019-04-06T21:11:53.189Z,11
2019-04-06T21:16:56.058Z,10
2019-04-06T21:21:58.944Z,11
2019-04-06T21:27:00.560Z,9
2019-04-06T21:32:03.116Z,10
2019-04-06T21:37:05.636Z,10
2019-04-06T21:42:07.893Z,9
2019-04-06T21:47:10.983Z,8
2019-04-06T21:52:12.828Z,8
2019-04-06T21:57:15.335Z,9
2019-04-06T22:02:17.977Z,9
2019-04-06T22:07:20.230Z,8
2019-04-06T22:12:22.714Z,7
2019-04-06T22:17:25.103Z,9
2019-04-06T22:22:27.556Z,8
2019-04-06T22:27:30.132Z,7
2019-04-06T22:32:32.575Z,8
2019-04-06T22:37:34.920Z,8
2019-04-06T22:42:37.374Z,8
2019-04-06T22:47:40.204Z,9
2019-04-06T22:52:42.363Z,8
2019-04-06T22:57:45.465Z,8
2019-04-06T23:02:47.581Z,9
2019-04-06T23:07:49.693Z,8
2019-04-06T23:12:52.151Z,8
2019-04-06T23:17:54.597Z,7
2019-04-06T23:22:57.090Z,9
2019-04-06T23:28:00.014Z,8
2019-04-06T23:33:02.645Z,9
2019-04-06T23:38:04.413Z,9
2019-04-06T23:43:07.373Z,9
2019-04-06T23:48:09.703Z,10
2019-04-06T23:53:11.785Z,9
2019-04-06T23:58:14.257Z,9
